Chataignier, Louisiana
Current Conditions -  °F | °C
As of 3:15 PM on Friday 24 Oct 2014 (Local Time) from KOPL Reporting Station
Overcast Overcast  
Wind Chill: 74°   Ceiling: 200
Heat Index: 74°   Visibility: 10mi
Dew Point: 47°   Wind: 8mph
Humidity: 39%   Direction: 360°N
Pressure: 30.08"   Gusts: NA
Location:  30.57°N, 92.32°W
Report Text: KOPL 242015Z AUTO 36007KT 10SM OVC002 23/09 A3008 RMK AO2 T02320085
Loading
Personal Weather Stations






























Interactive Weather Map
Tropical Storm Tracking
New forecast layout! Learn more

10-Day Weather Forecast

Advertisements
Track Severe Weather on mobile